Terminal Aerodrome Forecast
Issued by NWS Tiyan, Guam

Current Version | Previous Version | Text Only | Print | Product List | Glossary On
Versions: 1 2 3 4 5 6 7 8 9 10 11 12 13 14 15 16 17 18 19 20
000
FTPQ31 PGUM 232204 AAG
TAFGUM
TAF AMD
PGUM 232204Z 2322/2424 13018G30KT P6SM VCSH SCT015 BKN028
      TEMPO 2403/2407 4SM SHRA OVC015
     FM240900 15016G26KT P6SM VCSH SCT015 BKN030 BKN100=

USA.gov is the U.S. government's official web portal to all federal, state and local government web resources and services.